Time;durP1;ratioP1;P1;durP2;ratioP2;P2;SDS_P1;SDS_P2;PMS_P1;PMS_P2;Temp;Humidity;BMP_temperature;BMP_pressure;BME280_temperature;BME280_humidity;BME280_pressure;Samples;Min_cycle;Max_cycle;Signal;HPM_P1;HPM_P2
2023/12/26 00:01:57;;;;;;;1.58;1.40;;;;;;;9.44;100.00;100526.41;5013971;28;20037;-85
2023/12/26 00:04:23;;;;;;;1.37;1.27;;;;;;;9.52;100.00;100541.84;5014428;28;20018;-84
2023/12/26 00:06:49;;;;;;;1.80;1.40;;;;;;;9.50;100.00;100533.22;5013806;28;20521;-84
2023/12/26 00:09:15;;;;;;;1.83;1.40;;;;;;;9.41;100.00;100518.69;5012925;28;20394;-84
2023/12/26 00:11:45;;;;;;;1.50;1.40;;;;;;;9.48;100.00;100540.16;5014162;28;20026;-84
2023/12/26 00:14:11;;;;;;;1.95;1.67;;;;;;;9.48;100.00;100541.03;5014040;28;20079;-84
2023/12/26 00:16:36;;;;;;;1.63;1.20;;;;;;;9.51;100.00;100529.78;5013140;28;20017;-84
2023/12/26 00:19:02;;;;;;;1.30;1.20;;;;;;;9.45;100.00;100530.72;5014201;28;20025;-84
2023/12/26 00:21:28;;;;;;;2.13;1.50;;;;;;;9.47;100.00;100538.47;5014317;28;20017;-84
2023/12/26 00:23:53;;;;;;;1.40;1.30;;;;;;;9.44;100.00;100539.38;5013002;28;20022;-84
2023/12/26 00:26:18;;;;;;;1.93;1.30;;;;;;;9.43;100.00;100530.75;5013980;28;20025;-83
2023/12/26 00:28:44;;;;;;;3.20;1.60;;;;;;;9.45;100.00;100522.09;5013753;28;20022;-83
2023/12/26 00:31:09;;;;;;;1.50;1.40;;;;;;;9.46;100.00;100532.44;5013316;28;20524;-83
2023/12/26 00:33:34;;;;;;;1.53;1.43;;;;;;;9.41;100.00;100521.28;5013741;28;20034;-83
2023/12/26 00:36:00;;;;;;;2.63;1.60;;;;;;;9.40;100.00;100530.78;5013896;28;20030;-84
2023/12/26 00:38:25;;;;;;;1.47;1.37;;;;;;;9.40;100.00;100527.38;5012964;28;20022;-83
2023/12/26 00:40:57;;;;;;;2.07;1.63;;;;;;;9.38;100.00;100535.13;5013438;28;20029;-83
2023/12/26 00:43:22;;;;;;;2.10;1.67;;;;;;;9.34;100.00;100532.63;5012258;28;20033;-83
2023/12/26 00:45:53;;;;;;;2.67;1.30;;;;;;;9.33;100.00;100538.69;5009190;28;20038;-84
2023/12/26 00:48:19;;;;;;;2.67;1.50;;;;;;;9.32;100.00;100537.84;5013998;28;20374;-84
2023/12/26 00:50:44;;;;;;;1.70;1.37;;;;;;;9.36;100.00;100542.06;5012208;28;20038;-83
2023/12/26 00:53:10;;;;;;;3.87;1.40;;;;;;;9.33;100.00;100549.03;5012956;28;20377;-83
2023/12/26 00:55:35;;;;;;;2.47;1.77;;;;;;;9.34;100.00;100553.34;5013337;28;20412;-84
2023/12/26 00:58:01;;;;;;;1.40;1.30;;;;;;;9.32;100.00;100544.72;5012619;28;20446;-84
2023/12/26 01:00:29;;;;;;;1.20;1.10;;;;;;;9.32;100.00;100549.91;5013508;28;20029;-84
2023/12/26 01:02:55;;;;;;;1.85;1.25;;;;;;;9.37;100.00;100555.91;5013318;28;20037;-84
2023/12/26 01:05:20;;;;;;;1.70;1.33;;;;;;;9.34;100.00;100555.94;5012650;28;20540;-85
2023/12/26 01:07:46;;;;;;;2.30;1.30;;;;;;;9.31;100.00;100558.56;5013365;28;20053;-84
2023/12/26 01:10:12;;;;;;;1.33;1.10;;;;;;;9.31;100.00;100561.16;5013500;28;20030;-84
2023/12/26 01:12:37;;;;;;;1.30;1.20;;;;;;;9.30;100.00;100549.06;5012427;28;20018;-84
2023/12/26 01:15:03;;;;;;;1.27;1.20;;;;;;;9.30;100.00;100562.91;5013508;28;20053;-84
2023/12/26 01:17:28;;;;;;;1.33;1.23;;;;;;;9.29;100.00;100562.94;5013529;28;20061;-84
2023/12/26 01:19:53;;;;;;;2.03;1.63;;;;;;;9.25;100.00;100562.09;5012423;28;20109;-83
2023/12/26 01:22:19;;;;;;;2.60;1.70;;;;;;;9.28;100.00;100562.06;5013817;28;20378;-85
2023/12/26 01:24:44;;;;;;;1.70;1.60;;;;;;;9.26;100.00;100556.91;5013010;28;20055;-84
2023/12/26 01:27:09;;;;;;;1.90;1.70;;;;;;;9.26;100.00;100563.81;5012562;28;20092;-83
2023/12/26 01:29:35;;;;;;;2.30;1.93;;;;;;;9.27;100.00;100558.63;5012926;28;20062;-84
2023/12/26 01:32:01;;;;;;;1.97;1.77;;;;;;;9.28;100.00;100554.28;5012966;28;20030;-84
2023/12/26 01:34:26;;;;;;;2.70;1.70;;;;;;;9.25;100.00;100559.50;5012108;28;20407;-84
2023/12/26 01:36:51;;;;;;;1.80;1.70;;;;;;;9.28;100.00;100569.81;5012392;28;20025;-85
2023/12/26 01:39:17;;;;;;;3.13;1.80;;;;;;;9.32;100.00;100581.00;5013123;28;20487;-85
2023/12/26 01:41:42;;;;;;;1.80;1.70;;;;;;;9.28;100.00;100590.53;5012098;28;20022;-85
2023/12/26 01:44:08;;;;;;;1.80;1.70;;;;;;;9.30;100.00;100582.75;5012199;28;20038;-84
2023/12/26 01:46:34;;;;;;;1.70;1.60;;;;;;;9.30;100.00;100586.19;5012671;28;20057;-84
2023/12/26 01:49:00;;;;;;;1.80;1.70;;;;;;;9.26;100.00;100576.75;5012241;28;20429;-84
2023/12/26 01:51:29;;;;;;;1.90;1.80;;;;;;;9.31;100.00;100600.00;5012767;28;20034;-84
2023/12/26 01:53:55;;;;;;;1.70;1.60;;;;;;;9.32;100.00;100596.53;5011808;28;20046;-84
2023/12/26 01:56:21;;;;;;;1.50;1.40;;;;;;;9.30;100.00;100598.28;5013035;28;20025;-84
2023/12/26 01:58:48;;;;;;;1.58;1.33;;;;;;;9.26;100.00;100595.75;5012575;28;20053;-83
2023/12/26 02:01:14;;;;;;;;;;;;;;;9.30;100.00;100611.22;5012766;28;20028;-84
2023/12/26 02:03:40;;;;;;;1.60;1.50;;;;;;;9.30;100.00;100611.22;5012455;28;20008;-83
2023/12/26 02:06:09;;;;;;;1.20;1.20;;;;;;;9.29;100.00;100604.38;5013248;28;20356;-84
2023/12/26 02:08:35;;;;;;;1.15;1.15;;;;;;;9.27;100.00;100607.81;5011621;28;20311;-83
2023/12/26 02:11:02;;;;;;;1.67;1.40;;;;;;;9.31;100.00;100595.69;5012812;28;20351;-84
2023/12/26 02:13:27;;;;;;;;;;;;;;;9.29;100.00;100607.78;5012998;28;20029;-84
2023/12/26 02:15:55;;;;;;;1.77;1.67;;;;;;;9.26;100.00;100616.47;5011743;28;19913;-84
2023/12/26 02:18:21;;;;;;;2.15;1.98;;;;;;;9.24;100.00;100599.22;5012423;28;20026;-85
2023/12/26 02:20:46;;;;;;;1.80;1.70;;;;;;;9.26;100.00;100600.06;5012461;28;20018;-84
2023/12/26 02:23:12;;;;;;;2.37;2.03;;;;;;;9.26;100.00;100600.94;5012055;28;20433;-85
2023/12/26 02:25:37;;;;;;;2.20;2.00;;;;;;;9.23;100.00;100602.72;5012144;28;20018;-85
2023/12/26 02:28:06;;;;;;;2.00;1.90;;;;;;;9.25;100.00;100627.69;5012471;28;20045;-84
2023/12/26 02:30:31;;;;;;;2.20;2.00;;;;;;;9.25;100.00;100606.97;5011877;28;20546;-84
2023/12/26 02:33:18;;;;;;;2.13;1.93;;;;;;;9.24;100.00;100613.03;5016238;28;20038;-84
2023/12/26 02:35:43;;;;;;;;;;;;;;;9.24;100.00;100620.81;5015615;28;20478;-85
2023/12/26 02:38:09;;;;;;;2.37;1.93;;;;;;;9.24;100.00;100607.84;5015292;28;19913;-84
2023/12/26 02:40:34;;;;;;;2.27;1.90;;;;;;;9.29;100.00;100612.13;5015886;28;20165;-84
2023/12/26 02:42:59;;;;;;;2.10;1.90;;;;;;;9.29;100.00;100610.38;5015042;28;20066;-85
2023/12/26 02:45:27;;;;;;;1.87;1.77;;;;;;;9.29;100.00;100617.31;5015826;28;20017;-84
2023/12/26 02:47:53;;;;;;;1.80;1.70;;;;;;;9.29;100.00;100623.34;5015825;28;20030;-84
2023/12/26 02:50:18;;;;;;;2.00;1.90;;;;;;;9.26;100.00;100613.88;5015057;28;20486;-84
2023/12/26 02:52:43;;;;;;;1.90;1.80;;;;;;;9.24;100.00;100619.94;5015544;28;20462;-85
2023/12/26 02:55:09;;;;;;;1.80;1.70;;;;;;;9.29;100.00;100632.84;5015574;28;20169;-85
2023/12/26 02:57:34;;;;;;;2.73;2.00;;;;;;;9.23;100.00;100621.69;5014502;28;20483;-84
2023/12/26 03:00:00;;;;;;;2.20;2.00;;;;;;;9.28;100.00;100631.97;5015450;28;20413;-84
2023/12/26 03:02:25;;;;;;;2.57;2.00;;;;;;;9.27;100.00;100636.31;5015437;28;20029;-84
2023/12/26 03:04:51;;;;;;;2.10;1.90;;;;;;;9.27;100.00;100638.91;5014032;28;20038;-84
2023/12/26 03:07:17;;;;;;;2.10;2.00;;;;;;;9.26;100.00;100638.91;5015434;28;20017;-84
2023/12/26 03:09:42;;;;;;;2.27;2.00;;;;;;;9.29;100.00;100649.22;5015085;28;20091;-84
2023/12/26 03:12:08;;;;;;;2.13;2.00;;;;;;;9.24;100.00;100658.78;5014387;28;20041;-83
2023/12/26 03:14:33;;;;;;;2.20;2.00;;;;;;;9.20;100.00;100657.97;5015036;28;20427;-84
2023/12/26 03:17:04;;;;;;;4.17;2.80;;;;;;;9.19;100.00;100653.66;5011838;28;20034;-84
2023/12/26 03:19:30;;;;;;;3.00;2.70;;;;;;;9.20;100.00;100664.88;5014812;28;20021;-85
2023/12/26 03:21:55;;;;;;;3.03;2.60;;;;;;;9.23;100.00;100673.47;5015381;28;20426;-85
2023/12/26 03:24:20;;;;;;;4.40;3.10;;;;;;;9.22;100.00;100670.91;5015024;28;20072;-85
2023/12/26 03:26:46;;;;;;;3.67;2.80;;;;;;;9.22;100.00;100673.50;5013907;28;20537;-84
2023/12/26 03:29:11;;;;;;;3.57;2.57;;;;;;;9.21;100.00;100676.97;5014860;28;20556;-85
2023/12/26 03:31:43;;;;;;;3.80;2.57;;;;;;;9.18;100.00;100667.47;5014689;28;20529;-85
2023/12/26 03:34:08;;;;;;;2.40;2.20;;;;;;;9.19;100.00;100673.53;5013951;28;20136;-85
2023/12/26 03:38:59;;;;;;;3.28;2.10;;;;;;;9.14;100.00;100678.75;5002075;23;20054;-85
2023/12/26 03:41:27;;;;;;;2.77;2.10;;;;;;;9.15;100.00;100677.91;4994553;28;20025;-84
2023/12/26 03:43:52;;;;;;;3.13;2.03;;;;;;;9.11;100.00;100689.16;4994608;28;20413;-85
2023/12/26 03:46:18;;;;;;;2.00;1.77;;;;;;;9.09;100.00;100685.72;4994620;28;20097;-85
2023/12/26 03:48:45;;;;;;;1.70;1.60;;;;;;;9.05;100.00;100682.31;4994853;28;20506;-85
2023/12/26 03:51:11;;;;;;;2.95;1.73;;;;;;;9.07;100.00;100693.50;4995419;28;20360;-86
2023/12/26 03:53:36;;;;;;;1.63;1.53;;;;;;;9.05;100.00;100697.00;4994193;28;20106;-86
2023/12/26 03:56:01;;;;;;;2.07;1.60;;;;;;;9.00;100.00;100678.06;4994981;28;20057;-85
2023/12/26 03:58:27;;;;;;;3.33;1.50;;;;;;;9.04;100.00;100693.53;4994794;28;20391;-85
2023/12/26 04:00:52;;;;;;;1.63;1.20;;;;;;;9.04;100.00;100688.34;4993473;28;20033;-85
2023/12/26 04:03:17;;;;;;;1.77;1.10;;;;;;;9.04;100.00;100690.09;4994747;28;20054;-86
2023/12/26 04:05:43;;;;;;;1.70;1.33;;;;;;;9.00;100.00;100699.66;4994551;28;20122;-85
2023/12/26 04:08:08;;;;;;;1.77;1.00;;;;;;;9.05;100.00;100718.56;4994179;28;20030;-85
2023/12/26 04:10:33;;;;;;;1.07;0.90;;;;;;;9.07;100.00;100723.72;4994319;28;20064;-86
2023/12/26 04:12:59;;;;;;;2.53;1.20;;;;;;;9.03;100.00;100725.47;4994733;28;20532;-85
2023/12/26 04:15:24;;;;;;;2.93;1.30;;;;;;;9.03;100.00;100725.47;4994499;28;20478;-85
2023/12/26 04:17:49;;;;;;;2.30;1.20;;;;;;;9.08;100.00;100728.88;4994568;28;20030;-85
2023/12/26 04:20:15;;;;;;;5.87;1.40;;;;;;;9.02;100.00;100721.16;4994826;28;20468;-85
2023/12/26 04:23:00;;;;;;;1.90;1.17;;;;;;;9.03;100.00;100714.28;4993785;28;20032;-86
2023/12/26 04:25:26;;;;;;;4.87;1.53;;;;;;;8.93;100.00;100718.69;4994164;28;20100;-86
2023/12/26 04:27:51;;;;;;;2.43;1.30;;;;;;;8.98;100.00;100721.22;4993966;28;20030;-85
2023/12/26 04:30:17;;;;;;;4.57;1.37;;;;;;;9.05;100.00;100738.44;4993796;28;20034;-86
2023/12/26 04:32:43;;;;;;;3.97;1.50;;;;;;;8.94;100.00;100725.59;4994204;28;20463;-85
2023/12/26 04:35:08;;;;;;;4.83;1.60;;;;;;;9.02;100.00;100728.94;4994890;28;20372;-85
2023/12/26 04:37:34;;;;;;;4.33;1.20;;;;;;;9.01;100.00;100752.25;4993142;28;20053;-86
2023/12/26 04:39:59;;;;;;;3.17;1.20;;;;;;;8.91;100.00;100742.00;4994356;28;20117;-86
2023/12/26 04:42:24;;;;;;;2.87;1.13;;;;;;;8.96;100.00;100762.66;4994206;28;20026;-86
2023/12/26 04:44:50;;;;;;;4.57;1.30;;;;;;;8.92;100.00;100764.44;4993319;28;20027;-85
2023/12/26 04:47:16;;;;;;;11.17;1.63;;;;;;;8.92;100.00;100776.50;4994318;28;20034;-86
2023/12/26 04:49:43;;;;;;;2.30;1.40;;;;;;;8.89;100.00;100785.16;4993260;28;20030;-86
2023/12/26 04:52:08;;;;;;;3.60;1.23;;;;;;;8.90;100.00;100793.75;4994092;28;20030;-86
2023/12/26 04:54:34;;;;;;;4.70;1.27;;;;;;;8.87;100.00;100791.22;4992930;28;20065;-85
2023/12/26 04:56:59;;;;;;;3.37;1.40;;;;;;;8.84;100.00;100791.25;4992415;28;20049;-85
2023/12/26 04:59:24;;;;;;;5.83;1.30;;;;;;;8.77;100.00;100796.50;4994113;28;20038;-86
2023/12/26 05:01:50;;;;;;;4.23;1.33;;;;;;;8.77;100.00;100787.84;4994083;28;20471;-86
2023/12/26 05:04:15;;;;;;;2.93;1.20;;;;;;;8.79;100.00;100799.91;4993757;28;20048;-85
2023/12/26 05:06:41;;;;;;;4.30;1.60;;;;;;;8.79;100.00;100814.59;4993847;28;20030;-85
2023/12/26 05:09:06;;;;;;;2.90;1.17;;;;;;;8.74;100.00;100806.84;4993893;28;20443;-85
2023/12/26 05:11:31;;;;;;;2.90;1.10;;;;;;;8.76;100.00;100814.59;4993623;28;20026;-86
2023/12/26 05:14:00;;;;;;;1.93;1.20;;;;;;;8.75;100.00;100826.69;4993713;28;20383;-85
2023/12/26 05:16:25;;;;;;;3.45;1.13;;;;;;;8.76;100.00;100824.94;4993451;28;20049;-85
2023/12/26 05:21:20;;;;;;;2.72;1.00;;;;;;;8.71;100.00;100814.63;5000086;23;20046;-86
2023/12/26 05:23:46;;;;;;;4.45;1.05;;;;;;;8.69;100.00;100824.13;4993678;28;20041;-86
2023/12/26 05:26:15;;;;;;;0.93;0.80;;;;;;;8.69;100.00;100824.13;4993263;28;20022;-86
2023/12/26 05:28:40;;;;;;;3.00;0.90;;;;;;;8.59;100.00;100820.78;4989456;28;20070;-85
2023/12/26 05:31:26;;;;;;;4.73;1.07;;;;;;;8.66;100.00;100834.53;4974170;28;20468;-86
2023/12/26 05:33:52;;;;;;;6.18;1.55;;;;;;;8.63;100.00;100837.97;4973568;28;20035;-86
2023/12/26 05:36:17;;;;;;;4.93;1.23;;;;;;;8.62;100.00;100843.16;4974282;28;20038;-86
2023/12/26 05:38:42;;;;;;;4.47;1.17;;;;;;;8.64;100.00;100854.38;4973657;28;20027;-86
2023/12/26 05:41:24;;;;;;;3.83;1.40;;;;;;;8.61;100.00;100852.66;4974028;28;20038;-85
2023/12/26 05:43:49;;;;;;;2.72;1.10;;;;;;;8.55;100.00;100855.28;4973987;28;20035;-86
2023/12/26 05:46:15;;;;;;;3.33;1.03;;;;;;;8.59;100.00;100875.09;4973624;28;20434;-85
2023/12/26 05:48:43;;;;;;;5.07;1.40;;;;;;;8.57;100.00;100875.97;4973890;28;20066;-86
2023/12/26 05:51:08;;;;;;;7.00;1.58;;;;;;;8.55;100.00;100891.50;4974759;28;20027;-86
2023/12/26 05:53:34;;;;;;;4.73;1.60;;;;;;;8.54;100.00;100904.47;4973603;28;20034;-86
2023/12/26 05:55:59;;;;;;;6.23;1.20;;;;;;;8.49;100.00;100904.50;4974952;28;20023;-86
2023/12/26 05:58:25;;;;;;;2.33;1.10;;;;;;;8.45;100.00;100913.09;4993669;28;20065;-86
2023/12/26 06:00:51;;;;;;;2.55;1.30;;;;;;;8.38;100.00;100909.66;4993585;28;20487;-86
2023/12/26 06:03:16;;;;;;;5.80;1.53;;;;;;;8.34;100.00;100926.94;4993677;28;20065;-86
2023/12/26 06:05:42;;;;;;;4.90;1.10;;;;;;;8.28;100.00;100920.94;4994153;28;20518;-85
2023/12/26 06:08:07;;;;;;;3.97;1.20;;;;;;;8.21;100.00;100914.06;4996730;28;20065;-86
2023/12/26 06:10:33;;;;;;;2.83;1.20;;;;;;;8.19;100.00;100925.28;4996669;28;20046;-85
2023/12/26 06:12:58;;;;;;;4.93;1.47;;;;;;;8.15;100.00;100936.50;4996514;28;20034;-85
2023/12/26 06:15:24;;;;;;;4.17;1.27;;;;;;;8.12;100.00;100936.50;4996411;28;20022;-87
2023/12/26 06:17:49;;;;;;;3.43;1.23;;;;;;;7.99;100.00;100935.69;4997036;28;20034;-86
2023/12/26 06:20:15;;;;;;;3.23;1.20;;;;;;;8.02;100.00;100937.38;4997000;28;20421;-86
2023/12/26 06:22:43;;;;;;;2.80;1.07;;;;;;;7.99;100.00;100940.84;4995832;28;20494;-86
2023/12/26 06:25:09;;;;;;;3.85;1.45;;;;;;;7.93;100.00;100964.16;4996497;28;20038;-86
2023/12/26 06:27:35;;;;;;;3.37;1.10;;;;;;;7.92;100.00;100961.53;4996882;28;20084;-85
2023/12/26 06:30:00;;;;;;;4.50;1.10;;;;;;;7.85;100.00;100968.44;4996256;28;20483;-85
2023/12/26 06:32:29;;;;;;;3.93;1.23;;;;;;;7.81;100.00;100964.16;4996697;28;20282;-85
2023/12/26 06:34:56;;;;;;;5.63;1.30;;;;;;;7.65;100.00;100964.19;4995993;28;20419;-86
2023/12/26 06:37:22;;;;;;;3.38;1.00;;;;;;;7.74;100.00;100978.81;4995968;28;20030;-86
2023/12/26 06:39:47;;;;;;;7.53;1.50;;;;;;;7.70;100.00;100980.56;4996476;28;20037;-86
2023/12/26 06:42:12;;;;;;;3.77;1.40;;;;;;;7.64;100.00;100984.84;4996154;28;20033;-86
2023/12/26 06:44:38;;;;;;;2.85;1.15;;;;;;;7.54;100.00;100979.66;4996193;28;20538;-86
2023/12/26 06:47:03;;;;;;;3.38;0.98;;;;;;;7.56;100.00;100982.28;4996452;28;20030;-86
2023/12/26 06:49:29;;;;;;;6.37;1.67;;;;;;;7.52;100.00;100988.28;4995709;28;20034;-86
2023/12/26 06:51:54;;;;;;;4.88;1.40;;;;;;;7.47;100.00;100996.03;4996410;28;20030;-86
2023/12/26 06:54:19;;;;;;;5.30;1.10;;;;;;;7.45;100.00;100994.31;4979423;28;20124;-87
2023/12/26 06:56:45;;;;;;;4.40;1.20;;;;;;;7.42;100.00;100995.19;4976238;28;20093;-86
2023/12/26 06:59:10;;;;;;;4.87;1.40;;;;;;;7.34;100.00;100990.03;5014896;23;20559;-86
2023/12/26 07:01:35;;;;;;;3.93;1.30;;;;;;;7.38;100.00;100998.63;4996236;28;20030;-85
2023/12/26 07:04:05;;;;;;;3.17;1.03;;;;;;;7.32;100.00;100994.31;4995827;28;20134;-86
2023/12/26 07:06:30;;;;;;;7.15;1.48;;;;;;;7.24;100.00;100986.56;4988921;28;20054;-86
2023/12/26 07:08:55;;;;;;;3.50;1.00;;;;;;;7.27;100.00;100998.59;4995637;28;20456;-85
2023/12/26 07:11:21;;;;;;;4.37;1.30;;;;;;;7.33;100.00;101016.69;4995553;28;20037;-85
2023/12/26 07:13:52;;;;;;;5.03;1.20;;;;;;;7.20;100.00;101022.69;4996171;28;20023;-86
2023/12/26 07:16:17;;;;;;;4.28;1.13;;;;;;;7.25;100.00;101042.50;5001815;23;20050;-85
2023/12/26 07:18:43;;;;;;;5.23;1.10;;;;;;;7.21;100.00;101051.09;4995577;28;20030;-85
2023/12/26 07:21:11;;;;;;;3.07;0.87;;;;;;;7.21;100.00;101047.66;4993579;28;20073;-85
2023/12/26 07:23:36;;;;;;;6.85;1.48;;;;;;;7.19;100.00;101057.13;4994601;28;20039;-84
2023/12/26 07:26:02;;;;;;;3.87;1.17;;;;;;;7.09;100.00;101045.94;4995225;28;20033;-84
2023/12/26 07:28:27;;;;;;;5.10;1.57;;;;;;;7.19;100.00;101070.91;4996069;28;20398;-80
2023/12/26 07:30:53;;;;;;;3.13;1.43;;;;;;;7.16;100.00;101065.72;4995413;28;20471;-84
2023/12/26 07:33:18;;;;;;;2.57;1.07;;;;;;;7.17;100.00;101080.34;4995690;28;20034;-84
2023/12/26 07:35:44;;;;;;;5.07;1.35;;;;;;;7.09;100.00;101080.34;4995597;28;20030;-84
2023/12/26 07:38:12;;;;;;;5.05;1.10;;;;;;;7.14;100.00;101077.75;4995889;28;20030;-84
2023/12/26 07:40:40;;;;;;;5.57;1.25;;;;;;;7.15;100.00;101081.22;4994998;28;20038;-83
2023/12/26 07:43:10;;;;;;;4.25;1.10;;;;;;;7.17;100.00;101095.84;4995371;28;20042;-84
2023/12/26 07:45:36;;;;;;;5.53;1.35;;;;;;;7.14;100.00;101097.56;4994965;28;20041;-84
2023/12/26 07:48:05;;;;;;;2.17;0.98;;;;;;;7.14;100.00;101095.81;4995758;28;20105;-85
2023/12/26 07:50:31;;;;;;;5.50;1.30;;;;;;;7.13;100.00;101101.84;4995551;28;20112;-85
2023/12/26 07:52:56;;;;;;;3.97;1.13;;;;;;;7.17;100.00;101107.88;4994638;28;20113;-85
2023/12/26 07:55:29;;;;;;;3.97;0.90;;;;;;;7.15;100.00;101113.03;4995603;28;20015;-84
2023/12/26 07:57:54;;;;;;;3.58;1.00;;;;;;;7.17;100.00;101120.78;4989021;28;20033;-84
2023/12/26 08:00:20;;;;;;;2.47;1.30;;;;;;;7.15;100.00;101119.94;4994121;28;20479;-84
2023/12/26 08:02:48;;;;;;;3.50;1.15;;;;;;;7.09;100.00;101120.78;4971897;28;20038;-85
2023/12/26 08:05:13;;;;;;;5.25;1.85;;;;;;;7.18;100.00;101131.13;4974793;28;20027;-85
2023/12/26 08:07:39;;;;;;;4.57;1.13;;;;;;;7.11;100.00;101129.38;4973724;28;20019;-85
2023/12/26 08:10:04;;;;;;;5.83;1.50;;;;;;;7.11;100.00;101143.16;4987169;28;20030;-84
2023/12/26 08:12:43;;;;;;;3.63;1.00;;;;;;;6.99;100.00;101125.03;4977157;28;20138;-84
2023/12/26 08:15:11;;;;;;;2.83;0.80;;;;;;;7.10;100.00;101146.59;4983292;28;20023;-84
2023/12/26 08:17:37;;;;;;;4.85;1.10;;;;;;;7.08;100.00;101155.19;4984125;28;20034;-84
2023/12/26 08:20:03;;;;;;;3.67;0.77;;;;;;;7.06;100.00;101159.47;4974118;28;20034;-86
2023/12/26 08:22:29;;;;;;;6.95;1.50;;;;;;;7.04;100.00;101169.75;4973098;28;20058;-85
2023/12/26 08:24:57;;;;;;;5.80;1.30;;;;;;;7.04;100.00;101174.94;4973011;28;20057;-86
2023/12/26 08:27:23;;;;;;;9.95;1.90;;;;;;;7.06;100.00;101180.13;4973445;28;20045;-86
2023/12/26 08:29:51;;;;;;;4.73;1.60;;;;;;;7.04;100.00;101184.41;4972501;28;20030;-85
2023/12/26 08:32:17;;;;;;;6.95;1.67;;;;;;;7.04;100.00;101189.56;4975770;28;20030;-86
2023/12/26 08:34:44;;;;;;;3.37;1.30;;;;;;;7.04;100.00;101184.41;4976637;28;20022;-85
2023/12/26 08:37:11;;;;;;;3.13;1.30;;;;;;;7.04;100.00;101200.72;4978078;28;20027;-86
2023/12/26 08:39:36;;;;;;;3.10;1.30;;;;;;;6.97;100.00;101193.81;4978401;28;20057;-85
2023/12/26 08:42:02;;;;;;;4.23;1.47;;;;;;;7.02;100.00;101211.91;4975664;28;20022;-86
2023/12/26 08:44:27;;;;;;;2.63;1.30;;;;;;;6.99;100.00;101207.59;4975938;28;20050;-88
2023/12/26 08:47:03;;;;;;;5.88;1.63;;;;;;;7.00;100.00;101214.50;4975103;28;20463;-86
2023/12/26 08:49:29;;;;;;;5.32;1.65;;;;;;;7.01;100.00;101211.06;4974784;28;20033;-87
2023/12/26 08:51:54;;;;;;;6.60;1.60;;;;;;;7.03;100.00;101208.47;4975523;28;20086;-87
2023/12/26 08:54:20;;;;;;;9.63;2.17;;;;;;;7.03;100.00;101211.06;4975617;28;20593;-87
2023/12/26 08:56:46;;;;;;;3.70;1.40;;;;;;;7.06;100.00;101221.41;4974320;28;20022;-87
2023/12/26 08:59:12;;;;;;;4.45;1.52;;;;;;;7.10;100.00;101236.03;4975436;28;20018;-88
2023/12/26 09:01:37;;;;;;;7.25;1.83;;;;;;;7.05;100.00;101225.69;4972218;28;20480;-86
2023/12/26 09:04:06;;;;;;;6.60;1.83;;;;;;;7.12;100.00;101239.50;4974698;28;20148;-89
2023/12/26 09:07:07;;;;;;;7.25;1.80;;;;;;;7.09;100.00;101236.91;4974917;28;20042;-88
2023/12/26 09:09:32;;;;;;;6.97;1.88;;;;;;;7.24;100.00;101243.88;5001082;23;20054;-88
2023/12/26 09:11:59;;;;;;;7.20;1.60;;;;;;;7.34;100.00;101249.94;4955801;29;20054;-88
2023/12/26 09:14:24;;;;;;;5.35;1.50;;;;;;;7.45;100.00;101240.50;4975494;28;20506;-87
2023/12/26 09:16:50;;;;;;;7.88;1.73;;;;;;;7.46;100.00;101238.81;4974322;28;20102;-87
2023/12/26 09:19:15;;;;;;;7.07;1.80;;;;;;;7.53;100.00;101256.03;4975474;28;20369;-88
2023/12/26 09:21:41;;;;;;;6.60;1.60;;;;;;;7.55;100.00;101247.44;4975114;28;20121;-88
2023/12/26 09:24:06;;;;;;;11.30;1.80;;;;;;;7.58;100.00;101273.28;4974409;28;20023;-87
2023/12/26 09:26:31;;;;;;;8.50;1.90;;;;;;;7.62;100.00;101281.06;4975004;28;20027;-87
2023/12/26 09:28:57;;;;;;;4.75;1.55;;;;;;;7.59;100.00;101281.91;4974869;28;20031;-88
2023/12/26 09:31:47;;;;;;;11.17;2.20;;;;;;;7.56;100.00;101290.50;4938762;28;20039;-87
2023/12/26 09:34:24;;;;;;;6.93;1.83;;;;;;;7.42;100.00;101282.69;4975067;28;20031;-87
2023/12/26 09:36:50;;;;;;;5.47;1.48;;;;;;;7.50;100.00;101293.06;4974239;28;20035;-87
2023/12/26 09:39:34;;;;;;;3.37;1.50;;;;;;;7.44;100.00;101293.00;4974810;28;20034;-88
2023/12/26 09:42:02;;;;;;;2.85;1.17;;;;;;;7.49;100.00;101314.56;4979135;28;20452;-88
2023/12/26 09:44:28;;;;;;;4.00;1.27;;;;;;;7.45;100.00;101314.56;4979172;28;20053;-88
2023/12/26 09:46:53;;;;;;;3.93;1.33;;;;;;;7.42;100.00;101310.25;4977885;28;20113;-88
2023/12/26 09:49:22;;;;;;;8.20;1.52;;;;;;;7.39;100.00;101313.66;4979107;28;20050;-88
2023/12/26 09:51:50;;;;;;;7.65;1.80;;;;;;;7.42;100.00;101323.16;4978722;28;20027;-89
2023/12/26 09:54:18;;;;;;;5.50;1.65;;;;;;;7.35;100.00;101329.13;4979110;28;20077;-88
2023/12/26 09:56:47;;;;;;;5.93;1.80;;;;;;;7.32;100.00;101332.56;4978814;28;20054;-88
2023/12/26 09:59:16;;;;;;;3.80;1.45;;;;;;;7.26;100.00;101337.69;4978399;28;20022;-88
2023/12/26 10:01:43;;;;;;;4.22;1.42;;;;;;;7.26;100.00;101345.44;4973029;28;20043;-88
2023/12/26 10:04:08;;;;;;;5.05;1.52;;;;;;;7.22;100.00;101335.94;4979066;28;20077;-88
2023/12/26 10:06:34;;;;;;;5.13;1.50;;;;;;;7.25;100.00;101348.88;4977602;28;20196;-88
2023/12/26 10:09:00;;;;;;;5.17;1.57;;;;;;;7.35;100.00;101354.94;4978926;28;20030;-89
2023/12/26 10:11:27;;;;;;;4.68;1.70;;;;;;;7.47;100.00;101357.59;4978229;28;20035;-85
2023/12/26 10:13:53;;;;;;;7.03;1.95;;;;;;;7.56;100.00;101362.81;4965542;28;20057;-86
2023/12/26 10:16:22;;;;;;;7.18;1.63;;;;;;;7.66;100.00;101374.06;4976129;28;20101;-90
2023/12/26 10:18:47;;;;;;;6.20;1.95;;;;;;;7.73;100.00;101374.97;4978178;28;20038;-87
2023/12/26 10:26:33;;;;;;;5.97;1.90;;;;;;;7.97;100.00;101401.78;4993376;28;20558;-88
2023/12/26 10:28:59;;;;;;;6.53;1.50;;;;;;;8.00;100.00;101386.28;4996384;28;20031;-86
2023/12/26 10:31:44;;;;;;;8.87;1.77;;;;;;;8.05;100.00;101387.16;4992242;28;20034;-86
2023/12/26 10:34:19;;;;;;;11.75;2.30;;;;;;;8.12;100.00;101375.97;4986384;28;20403;-86
2023/12/26 10:37:00;;;;;;;8.07;1.80;;;;;;;8.16;100.00;101379.47;4984943;28;20031;-87
2023/12/26 10:39:27;;;;;;;4.82;1.58;;;;;;;8.26;100.00;101393.28;5072037;23;20050;-87
2023/12/26 10:41:54;;;;;;;7.85;2.00;;;;;;;8.29;100.00;101385.53;4992985;28;20050;-89
2023/12/26 10:44:54;;;;;;;;;;;;;;;8.34;100.00;101381.22;4991966;28;20479;-87
2023/12/26 10:47:47;;;;;;;6.47;1.80;;;;;;;8.41;100.00;101372.63;5007613;28;19924;-88
2023/12/26 10:50:32;;;;;;;6.85;2.10;;;;;;;8.44;100.00;101384.72;4996324;28;20042;-89
2023/12/26 10:53:32;;;;;;;8.55;1.92;;;;;;;8.46;99.28;101389.00;4996006;28;20084;-89
2023/12/26 10:56:16;;;;;;;6.30;1.60;;;;;;;8.32;100.00;101360.53;4996441;28;20070;-89
2023/12/26 10:58:41;;;;;;;8.98;1.90;;;;;;;8.38;100.00;101374.34;4997206;28;20065;-89
2023/12/26 13:52:40;;;;;;;6.03;1.33;;;;;;;8.34;96.14;101577.78;4991502;28;20136;-84
2023/12/26 13:55:05;;;;;;;7.93;1.75;;;;;;;8.33;96.07;101579.53;4988052;28;20608;-84
2023/12/26 13:57:30;;;;;;;6.97;1.93;;;;;;;8.33;95.25;101586.44;4991653;28;20105;-84
2023/12/26 14:00:05;;;;;;;9.30;2.03;;;;;;;8.29;94.61;101584.66;4995706;28;20109;-84
2023/12/26 14:02:37;;;;;;;6.95;1.92;;;;;;;8.21;95.19;101579.44;4991132;28;20120;-84
2023/12/26 14:05:13;;;;;;;6.03;1.48;;;;;;;8.19;96.59;101582.03;4992470;28;20089;-83
2023/12/26 14:07:39;;;;;;;4.03;1.48;;;;;;;8.25;96.30;101599.31;4992133;28;20014;-84
2023/12/26 14:10:04;;;;;;;4.23;1.37;;;;;;;8.24;96.11;101594.09;4991916;28;20134;-83
2023/12/26 14:12:30;;;;;;;7.37;1.70;;;;;;;8.20;96.15;101608.72;4990755;28;20027;-83
2023/12/26 14:14:56;;;;;;;5.53;2.03;;;;;;;8.18;97.06;101607.84;4992212;28;20471;-83
2023/12/26 14:17:22;;;;;;;5.50;1.45;;;;;;;8.10;96.80;101602.66;4992429;28;20022;-81
2023/12/26 14:19:47;;;;;;;6.27;1.50;;;;;;;8.08;97.75;101598.31;4990321;28;20038;-85
2023/12/26 14:22:12;;;;;;;5.13;1.60;;;;;;;8.09;98.24;101611.25;4992585;28;20030;-84
2023/12/26 14:24:44;;;;;;;2.73;1.37;;;;;;;8.10;98.52;101619.88;4987477;28;20039;-84
2023/12/26 14:27:09;;;;;;;7.05;1.55;;;;;;;8.06;97.26;101618.09;4990288;28;20073;-84
2023/12/26 14:29:40;;;;;;;6.50;1.60;;;;;;;8.06;96.38;101623.28;4995379;28;20114;-83